Time;durP1;ratioP1;P1;durP2;ratioP2;P2;SDS_P1;SDS_P2;PMS_P1;PMS_P2;Temp;Humidity;BMP_temperature;BMP_pressure;BME280_temperature;BME280_humidity;BME280_pressure;Samples;Min_cycle;Max_cycle;Signal;HPM_P1;HPM_P2
2020/12/10 00:03:29;;;;;;;10.70;6.83;;;20.00;58.50;;;;;;15615562;28;20021;-61
2020/12/10 00:10:59;;;;;;;11.15;8.02;;;19.90;58.50;;;;;;15615219;28;20444;-61
2020/12/10 00:18:30;;;;;;;10.33;6.73;;;19.90;58.60;;;;;;15632573;28;20547;-61
2020/12/10 00:26:01;;;;;;;9.77;6.83;;;19.90;58.60;;;;;;15632146;28;20527;-61
2020/12/10 00:33:31;;;;;;;8.40;6.15;;;19.90;58.70;;;;;;15632435;28;20032;-61
2020/12/10 00:41:02;;;;;;;9.27;6.77;;;19.90;58.70;;;;;;15631324;28;20025;-61
2020/12/10 00:48:33;;;;;;;10.40;7.03;;;19.90;58.80;;;;;;15630717;28;20104;-61
2020/12/10 00:56:03;;;;;;;9.07;5.93;;;19.90;58.80;;;;;;15630004;28;20041;-61
2020/12/10 01:03:34;;;;;;;7.30;5.28;;;19.80;58.80;;;;;;15630616;28;20032;-61
2020/12/10 01:11:04;;;;;;;9.07;4.80;;;19.80;58.80;;;;;;15629795;28;20104;-61
2020/12/10 01:18:35;;;;;;;7.07;5.33;;;19.80;58.80;;;;;;15629121;28;20484;-61
2020/12/10 01:26:10;;;;;;;8.75;4.63;;;19.80;58.80;;;;;;15610938;28;20464;-61
2020/12/10 01:33:40;;;;;;;5.83;4.40;;;19.90;58.90;;;;;;15628741;28;20075;-61
2020/12/10 01:41:11;;;;;;;8.07;5.37;;;19.90;58.90;;;;;;15627766;28;20037;-62
2020/12/10 01:48:43;;;;;;;6.47;4.47;;;19.80;58.80;;;;;;15627245;28;21042;-62
2020/12/10 01:56:15;;;;;;;8.20;4.90;;;19.80;58.90;;;;;;15609069;28;20029;-62
2020/12/10 02:03:46;;;;;;;7.80;5.72;;;19.80;58.90;;;;;;15607806;28;20060;-62
2020/12/10 02:11:17;;;;;;;7.00;4.70;;;19.80;59.00;;;;;;15626241;28;20029;-62
2020/12/10 02:18:54;;;;;;;6.73;4.53;;;19.80;58.90;;;;;;15625500;28;20075;-62
2020/12/10 02:26:25;;;;;;;6.55;4.60;;;19.80;59.00;;;;;;15607451;28;20458;-62
2020/12/10 04:07:57;;;;;;;7.68;5.35;;;19.70;59.40;;;;;;15321614;23;20059;-60
2020/12/10 04:15:27;;;;;;;8.07;5.67;;;19.70;59.30;;;;;;15319894;29;20032;-60
2020/12/10 04:22:58;;;;;;;6.70;4.50;;;19.70;59.30;;;;;;15319442;29;20039;-60
2020/12/10 04:30:28;;;;;;;7.07;4.40;;;19.70;59.30;;;;;;15328852;29;20151;-60
2020/12/10 04:37:59;;;;;;;5.80;4.03;;;19.70;59.30;;;;;;15329810;29;20842;-60
2020/12/10 04:45:29;;;;;;;7.53;4.77;;;19.70;59.30;;;;;;15329406;29;20059;-60
2020/12/10 04:53:00;;;;;;;7.72;5.78;;;19.70;59.40;;;;;;15329323;29;20486;-60
2020/12/10 05:00:31;;;;;;;6.57;4.63;;;19.70;59.50;;;;;;15328228;29;20035;-60
2020/12/10 05:08:03;;;;;;;8.50;5.83;;;19.70;59.40;;;;;;15328075;29;20107;-60
2020/12/10 05:15:35;;;;;;;14.40;10.43;;;19.70;59.40;;;;;;15328744;29;20540;-60
2020/12/10 05:23:09;;;;;;;5.20;3.47;;;19.70;59.40;;;;;;15327563;29;20093;-60
2020/12/10 05:30:43;;;;;;;5.20;3.53;;;19.70;59.40;;;;;;15326676;29;20086;-60
2020/12/10 05:38:14;;;;;;;6.05;3.65;;;19.70;59.50;;;;;;15323971;29;20035;-60
2020/12/10 05:45:51;;;;;;;5.80;4.07;;;19.70;59.60;;;;;;15326308;29;20031;-60
2020/12/10 05:53:25;;;;;;;5.30;3.60;;;19.70;59.70;;;;;;15324235;29;20550;-60
2020/12/10 06:00:55;;;;;;;5.78;3.90;;;19.70;59.70;;;;;;15325375;29;20110;-59
2020/12/10 06:08:26;;;;;;;4.68;3.50;;;19.70;60.20;;;;;;15325035;29;20035;-60
2020/12/10 06:16:11;;;;;;;4.13;2.93;;;19.70;60.60;;;;;;15324303;29;20055;-59
2020/12/10 06:23:42;;;;;;;5.20;3.33;;;19.70;60.60;;;;;;15324286;29;20802;-59
2020/12/10 06:31:12;;;;;;;8.63;5.43;;;19.80;60.50;;;;;;15323507;29;20040;-73
2020/12/10 06:38:43;;;;;;;6.28;4.18;;;19.70;60.50;;;;;;15322873;29;20032;-58
2020/12/10 06:46:14;;;;;;;5.53;3.83;;;19.80;60.50;;;;;;15322555;29;20390;-58
2020/12/10 06:54:00;;;;;;;4.32;2.60;;;19.80;60.60;;;;;;15322207;29;20099;-58
2020/12/10 07:01:38;;;;;;;9.63;2.88;;;19.80;60.60;;;;;;15322594;29;20043;-59
2020/12/10 07:09:10;;;;;;;6.20;3.10;;;19.80;60.80;;;;;;15322433;29;20031;-59
2020/12/10 07:16:41;;;;;;;5.18;3.08;;;19.80;61.00;;;;;;15322973;29;20483;-59
2020/12/10 07:24:11;;;;;;;4.77;2.80;;;19.80;61.00;;;;;;15322158;29;20044;-59
2020/12/10 07:31:42;;;;;;;10.52;8.40;;;19.80;60.80;;;;;;15322341;29;20039;-59
2020/12/10 07:39:14;;;;;;;7.05;5.43;;;19.80;56.80;;;;;;15321709;29;20490;-59
2020/12/10 07:46:49;;;;;;;6.43;4.55;;;19.80;58.80;;;;;;15324167;29;20107;-59
2020/12/10 07:54:20;;;;;;;6.20;4.67;;;19.80;58.70;;;;;;15334424;29;20035;-59
2020/12/10 08:01:54;;;;;;;6.82;3.85;;;19.80;58.70;;;;;;15329933;29;20060;-59
2020/12/10 08:09:24;;;;;;;6.28;3.90;;;19.70;58.90;;;;;;15336637;29;20023;-59
2020/12/10 08:16:57;;;;;;;5.13;3.73;;;19.70;59.10;;;;;;15332861;29;20115;-59
2020/12/10 08:24:42;;;;;;;8.30;5.28;;;19.80;59.20;;;;;;15332351;29;20452;-58
2020/12/10 08:32:14;;;;;;;16.53;10.13;;;19.70;59.10;;;;;;15330368;29;20032;-59
2020/12/10 08:39:45;;;;;;;9.35;5.22;;;19.70;58.60;;;;;;15330688;29;20024;-59
2020/12/10 08:47:32;;;;;;;16.63;13.93;;;19.70;58.80;;;;;;15330963;29;20517;-59
2020/12/10 08:55:02;;;;;;;11.93;8.95;;;19.40;46.20;;;;;;15330994;29;20020;-58
2020/12/10 09:02:33;;;;;;;8.70;6.00;;;19.30;54.70;;;;;;15329574;29;20031;-58
2020/12/10 09:10:06;;;;;;;8.30;5.80;;;19.40;56.90;;;;;;15328979;29;20451;-59
2020/12/10 09:17:37;;;;;;;10.18;5.82;;;19.50;57.90;;;;;;15329196;29;20042;-58
2020/12/10 09:25:07;;;;;;;11.80;5.60;;;19.50;58.60;;;;;;15328023;29;20102;-59
2020/12/10 09:32:40;;;;;;;9.30;6.05;;;19.60;58.70;;;;;;15327039;29;20874;-58
2020/12/10 09:40:13;;;;;;;9.85;5.20;;;19.60;58.80;;;;;;15326228;29;20032;-58
2020/12/10 09:47:47;;;;;;;7.55;4.45;;;19.60;58.60;;;;;;15324752;29;20027;-58
2020/12/10 10:03:07;;;;;;;7.85;4.03;;;19.70;58.70;;;;;;15340922;23;20154;-62
2020/12/10 10:10:38;;;;;;;8.20;4.37;;;19.70;59.10;;;;;;15325379;29;20506;-63
2020/12/10 10:18:08;;;;;;;8.63;3.83;;;19.70;59.30;;;;;;15325906;29;20523;-63
2020/12/10 10:25:39;;;;;;;8.43;4.37;;;19.70;59.60;;;;;;15323344;29;20034;-63
2020/12/10 10:33:10;;;;;;;8.00;4.57;;;19.70;59.60;;;;;;15323384;29;20042;-63
2020/12/10 10:40:40;;;;;;;8.50;4.35;;;19.80;60.00;;;;;;15323728;29;20032;-62
2020/12/10 10:48:11;;;;;;;6.80;4.53;;;19.80;59.70;;;;;;15322760;29;20044;-63
2020/12/10 10:55:41;;;;;;;7.07;3.38;;;19.80;59.40;;;;;;15322525;29;20074;-63
2020/12/10 11:03:12;;;;;;;5.77;3.40;;;19.80;59.40;;;;;;15321291;29;20035;-62
2020/12/10 11:10:42;;;;;;;6.05;3.30;;;19.90;59.60;;;;;;15319661;29;20035;-63
2020/12/10 11:18:13;;;;;;;4.90;2.40;;;19.90;59.70;;;;;;15319716;29;20393;-63
2020/12/10 11:25:43;;;;;;;5.38;2.50;;;19.90;59.60;;;;;;15319644;29;20382;-63
2020/12/10 11:33:14;;;;;;;3.23;2.30;;;19.90;59.40;;;;;;15318519;29;20502;-63
2020/12/10 11:40:44;;;;;;;5.75;2.50;;;19.80;60.40;;;;;;15328193;29;20434;-63
2020/12/10 11:48:15;;;;;;;4.37;2.20;;;19.80;60.20;;;;;;15329326;29;20455;-63
2020/12/10 11:55:45;;;;;;;3.20;2.07;;;19.80;60.00;;;;;;15328705;29;20047;-63
2020/12/10 12:03:16;;;;;;;4.53;2.27;;;19.90;60.00;;;;;;15311855;29;513840;-62
2020/12/10 12:10:47;;;;;;;4.15;2.00;;;19.90;59.90;;;;;;15331290;29;20062;-63
2020/12/10 12:18:17;;;;;;;2.97;2.00;;;19.90;59.80;;;;;;15332058;29;20035;-63
2020/12/10 12:25:48;;;;;;;3.92;2.13;;;20.00;59.80;;;;;;15331339;29;20055;-63
2020/12/10 12:33:18;;;;;;;5.40;2.37;;;19.90;60.10;;;;;;15330913;29;20024;-62
2020/12/10 12:40:49;;;;;;;4.20;1.83;;;20.00;60.20;;;;;;15330307;29;20459;-62
2020/12/10 12:48:20;;;;;;;2.97;1.98;;;20.00;60.20;;;;;;15328641;29;20032;-63
2020/12/10 12:55:50;;;;;;;4.55;2.00;;;20.10;60.00;;;;;;15329729;29;20028;-63
2020/12/10 13:03:20;;;;;;;2.67;1.70;;;20.20;59.90;;;;;;15328694;29;20123;-62
2020/12/10 13:10:52;;;;;;;4.40;2.10;;;20.20;59.70;;;;;;15327916;29;20526;-62
2020/12/10 13:18:23;;;;;;;4.90;1.92;;;20.20;59.70;;;;;;15328312;29;20031;-63
2020/12/10 13:25:53;;;;;;;3.27;1.40;;;20.20;59.60;;;;;;15327563;29;20035;-63
2020/12/10 13:33:24;;;;;;;2.50;1.43;;;20.20;59.40;;;;;;15328098;29;20023;-63
2020/12/10 13:40:54;;;;;;;3.07;1.40;;;20.20;59.30;;;;;;15326849;29;20456;-63
2020/12/10 13:48:25;;;;;;;3.07;1.30;;;20.20;59.30;;;;;;15326723;29;20063;-64
2020/12/10 13:55:55;;;;;;;2.03;1.27;;;20.20;59.40;;;;;;15326184;29;20038;-63
2020/12/10 14:03:26;;;;;;;3.27;1.60;;;20.20;59.70;;;;;;15325016;29;20083;-63
2020/12/10 14:10:56;;;;;;;3.57;1.40;;;20.20;59.40;;;;;;15325381;29;20034;-64
2020/12/10 14:18:27;;;;;;;3.25;1.60;;;20.10;59.20;;;;;;15326412;29;20985;-64
2020/12/10 14:25:57;;;;;;;4.90;1.77;;;20.20;59.20;;;;;;15329745;29;20027;-64
2020/12/10 14:33:28;;;;;;;3.25;1.30;;;20.20;59.20;;;;;;15337998;29;20459;-64
2020/12/10 14:40:59;;;;;;;4.38;1.75;;;20.10;59.10;;;;;;15322441;29;20036;-63
2020/12/10 14:48:29;;;;;;;2.43;1.43;;;20.10;59.10;;;;;;15323592;29;20130;-63
2020/12/10 14:56:00;;;;;;;2.65;1.60;;;20.10;60.20;;;;;;15321184;29;20478;-63
2020/12/10 15:03:30;;;;;;;3.03;1.23;;;20.10;60.10;;;;;;15322831;29;20046;-64
2020/12/10 15:11:01;;;;;;;2.30;1.07;;;20.20;59.90;;;;;;15321860;29;20118;-63
2020/12/10 15:18:31;;;;;;;2.57;1.20;;;20.20;59.70;;;;;;15322010;29;20044;-63
2020/12/10 15:26:02;;;;;;;2.43;1.13;;;20.20;59.50;;;;;;15321859;29;20458;-63
2020/12/10 15:33:32;;;;;;;1.93;1.00;;;20.20;59.50;;;;;;15321633;29;20034;-63
2020/12/10 15:41:05;;;;;;;1.38;1.10;;;20.20;59.50;;;;;;15321123;29;20464;-62
2020/12/10 15:48:35;;;;;;;2.00;1.13;;;20.20;60.60;;;;;;15320717;29;20542;-62
2020/12/10 15:56:07;;;;;;;3.58;0.98;;;20.10;60.40;;;;;;15321332;29;20051;-63
2020/12/10 16:03:38;;;;;;;1.67;1.00;;;20.20;60.10;;;;;;15335236;23;20051;-59
2020/12/10 16:11:08;;;;;;;2.25;1.23;;;20.20;59.90;;;;;;15319663;29;20023;-59
2020/12/10 16:18:39;;;;;;;2.47;1.13;;;20.20;59.90;;;;;;15320348;29;20032;-59
2020/12/10 16:26:10;;;;;;;2.03;1.40;;;20.20;59.70;;;;;;15329198;29;20028;-59
2020/12/10 16:33:41;;;;;;;2.90;1.75;;;20.30;59.60;;;;;;15330719;29;20038;-58
2020/12/10 16:41:18;;;;;;;3.25;1.10;;;20.20;59.60;;;;;;15330855;29;20089;-59
2020/12/10 16:48:49;;;;;;;4.53;1.42;;;20.20;59.90;;;;;;15329204;29;20035;-58
2020/12/10 16:56:19;;;;;;;3.97;1.00;;;20.20;60.00;;;;;;15329955;29;20044;-59
2020/12/10 17:03:50;;;;;;;3.63;1.40;;;20.20;59.90;;;;;;15329168;29;20040;-60
2020/12/10 17:11:23;;;;;;;12.63;5.27;;;20.20;59.60;;;;;;15329537;29;20032;-59
2020/12/10 17:18:55;;;;;;;7.28;2.97;;;20.20;60.50;;;;;;15328058;29;20019;-59
2020/12/10 17:26:30;;;;;;;4.85;2.53;;;20.30;61.30;;;;;;15327465;29;20034;-59
2020/12/10 17:34:02;;;;;;;8.87;3.60;;;20.30;60.90;;;;;;15327605;29;20042;-59
2020/12/10 17:41:32;;;;;;;7.15;4.22;;;20.30;60.80;;;;;;15326510;29;20512;-59
2020/12/10 17:49:03;;;;;;;5.93;2.50;;;20.30;60.70;;;;;;15326521;29;20200;-59
2020/12/10 17:56:33;;;;;;;7.63;4.70;;;20.30;60.80;;;;;;15326049;29;20539;-59
2020/12/10 18:04:04;;;;;;;7.93;5.88;;;20.30;61.00;;;;;;15325950;29;20114;-59
2020/12/10 18:11:34;;;;;;;5.27;3.50;;;20.20;60.50;;;;;;15324690;29;20035;-59
2020/12/10 18:19:06;;;;;;;5.97;3.88;;;20.20;60.60;;;;;;15323658;29;20461;-59
2020/12/10 18:26:37;;;;;;;8.93;5.70;;;20.20;60.60;;;;;;15329366;29;20039;-60
2020/12/10 18:34:09;;;;;;;6.97;4.00;;;20.20;60.60;;;;;;15324263;29;20035;-61
2020/12/10 18:41:39;;;;;;;21.13;18.70;;;20.20;60.80;;;;;;15323560;29;20042;-61
2020/12/10 18:49:10;;;;;;;21.20;18.00;;;20.20;60.90;;;;;;15322934;29;20031;-61
2020/12/10 18:56:40;;;;;;;23.70;21.17;;;20.20;61.30;;;;;;15322434;29;20122;-62
2020/12/10 19:04:11;;;;;;;26.10;23.40;;;20.20;61.30;;;;;;15322145;29;20475;-61
2020/12/10 19:11:41;;;;;;;7.17;5.07;;;20.20;61.00;;;;;;15321653;29;20162;-59
2020/12/10 19:19:12;;;;;;;8.10;3.53;;;20.30;60.90;;;;;;15323731;29;20031;-61
2020/12/10 19:26:43;;;;;;;9.13;3.93;;;20.20;60.80;;;;;;15321434;29;20039;-60
2020/12/10 19:34:13;;;;;;;4.35;2.30;;;20.30;60.90;;;;;;15321238;29;20079;-60
2020/12/10 19:41:44;;;;;;;5.50;2.77;;;20.20;60.90;;;;;;15331939;29;20028;-61
2020/12/10 19:49:15;;;;;;;5.90;2.53;;;20.30;60.90;;;;;;15321648;29;20030;-61
2020/12/10 19:56:47;;;;;;;5.00;3.00;;;20.20;60.90;;;;;;15323968;29;20032;-60
2020/12/10 20:04:18;;;;;;;8.07;4.38;;;20.20;61.10;;;;;;15331829;29;20094;-60
2020/12/10 20:11:48;;;;;;;5.00;2.97;;;20.30;61.20;;;;;;15331734;29;20035;-60
2020/12/10 20:19:19;;;;;;;5.03;2.92;;;20.30;61.20;;;;;;15331618;29;20028;-60
2020/12/10 20:26:50;;;;;;;4.28;2.10;;;20.20;61.00;;;;;;15331056;29;20035;-60
2020/12/10 20:34:20;;;;;;;3.65;1.95;;;20.30;60.90;;;;;;15331457;29;20067;-60
2020/12/10 20:41:51;;;;;;;5.47;3.00;;;20.30;60.80;;;;;;15334391;29;20554;-61
2020/12/10 20:49:22;;;;;;;7.53;4.90;;;20.30;60.70;;;;;;15338833;29;20027;-60
2020/12/10 20:56:53;;;;;;;6.13;4.47;;;20.30;60.70;;;;;;15336674;29;20486;-60
2020/12/10 21:04:24;;;;;;;6.20;4.18;;;20.30;60.70;;;;;;15338660;29;20122;-60
2020/12/10 21:11:55;;;;;;;8.13;5.13;;;20.30;60.70;;;;;;15329242;29;20439;-60
2020/12/10 21:19:26;;;;;;;6.32;3.47;;;20.30;60.80;;;;;;15351353;29;20087;-60
2020/12/10 21:26:56;;;;;;;11.60;8.03;;;20.30;60.80;;;;;;15340090;29;20087;-60
2020/12/10 21:34:27;;;;;;;7.27;5.00;;;20.20;55.40;;;;;;15328176;29;20032;-60
2020/12/10 21:41:58;;;;;;;5.00;3.08;;;20.20;57.70;;;;;;15326852;29;20059;-60
2020/12/10 21:49:28;;;;;;;5.40;3.20;;;20.10;58.20;;;;;;15326254;29;20030;-60
2020/12/10 21:56:59;;;;;;;5.03;3.33;;;20.20;58.50;;;;;;15325706;29;20042;-60
2020/12/10 22:04:29;;;;;;;5.90;4.18;;;20.20;58.70;;;;;;15343114;23;20071;-61
2020/12/10 22:12:05;;;;;;;7.33;4.20;;;20.10;58.80;;;;;;15325512;29;20035;-64
2020/12/10 22:19:36;;;;;;;7.13;4.63;;;20.10;58.90;;;;;;15324361;29;20024;-63
2020/12/10 22:27:06;;;;;;;5.72;4.22;;;20.10;58.90;;;;;;15324454;29;20031;-63
2020/12/10 22:34:36;;;;;;;6.67;5.07;;;20.00;58.80;;;;;;15322905;29;20042;-61
2020/12/10 22:42:07;;;;;;;6.70;5.07;;;20.00;58.80;;;;;;15323493;29;20538;-60
2020/12/10 22:49:38;;;;;;;8.13;5.93;;;20.00;58.80;;;;;;15322122;29;20027;-61
2020/12/10 22:57:09;;;;;;;7.78;6.15;;;20.00;58.90;;;;;;15321645;29;20504;-61
2020/12/10 23:04:39;;;;;;;8.63;7.43;;;20.00;58.90;;;;;;15322760;29;20122;-61
2020/12/10 23:12:09;;;;;;;10.73;8.10;;;20.00;58.90;;;;;;15322288;29;20035;-61
2020/12/10 23:19:40;;;;;;;11.23;7.90;;;19.90;58.90;;;;;;15322090;29;20036;-61
2020/12/10 23:27:10;;;;;;;8.33;6.17;;;19.90;58.90;;;;;;15321774;29;20118;-61
2020/12/10 23:34:42;;;;;;;7.67;5.20;;;19.90;59.00;;;;;;15329328;29;20027;-61
2020/12/10 23:42:13;;;;;;;6.90;4.93;;;19.90;59.10;;;;;;15333465;29;20115;-60
2020/12/10 23:49:43;;;;;;;5.30;3.67;;;19.90;59.10;;;;;;15333461;29;20094;-61
2020/12/10 23:57:14;;;;;;;4.07;2.70;;;19.90;59.20;;;;;;15332904;29;20035;-61
